sensor_id;sensor_type;location;lat;lon;timestamp;P1;durP1;ratioP1;P2;durP2;ratioP2
12474;SDS011;6302;42.624;23.334;2024-02-23T00:01:47;14.37;;;12.20;;
12474;SDS011;6302;42.624;23.334;2024-02-23T00:04:14;22.00;;;16.13;;
12474;SDS011;6302;42.624;23.334;2024-02-23T00:06:41;15.23;;;12.77;;
12474;SDS011;6302;42.624;23.334;2024-02-23T00:09:07;14.70;;;11.90;;
12474;SDS011;6302;42.624;23.334;2024-02-23T00:11:36;14.07;;;11.80;;
12474;SDS011;6302;42.624;23.334;2024-02-23T00:14:09;14.00;;;12.10;;
12474;SDS011;6302;42.624;23.334;2024-02-23T00:16:37;14.37;;;11.77;;
12474;SDS011;6302;42.624;23.334;2024-02-23T00:19:04;14.63;;;12.40;;
12474;SDS011;6302;42.624;23.334;2024-02-23T00:21:31;14.67;;;11.83;;
12474;SDS011;6302;42.624;23.334;2024-02-23T00:23:58;14.73;;;12.87;;
12474;SDS011;6302;42.624;23.334;2024-02-23T00:26:25;16.20;;;14.10;;
12474;SDS011;6302;42.624;23.334;2024-02-23T00:28:54;13.80;;;11.33;;
12474;SDS011;6302;42.624;23.334;2024-02-23T00:31:21;14.40;;;11.80;;
12474;SDS011;6302;42.624;23.334;2024-02-23T00:33:48;15.90;;;11.97;;
12474;SDS011;6302;42.624;23.334;2024-02-23T00:36:15;17.00;;;11.60;;
12474;SDS011;6302;42.624;23.334;2024-02-23T00:38:42;12.83;;;10.83;;
12474;SDS011;6302;42.624;23.334;2024-02-23T00:41:09;13.10;;;11.00;;
12474;SDS011;6302;42.624;23.334;2024-02-23T00:43:37;11.90;;;10.40;;
12474;SDS011;6302;42.624;23.334;2024-02-23T00:46:06;13.93;;;11.00;;
12474;SDS011;6302;42.624;23.334;2024-02-23T00:48:33;15.80;;;12.57;;
12474;SDS011;6302;42.624;23.334;2024-02-23T00:51:00;13.23;;;11.67;;
12474;SDS011;6302;42.624;23.334;2024-02-23T00:53:27;14.07;;;11.60;;
12474;SDS011;6302;42.624;23.334;2024-02-23T00:55:54;13.80;;;11.10;;
12474;SDS011;6302;42.624;23.334;2024-02-23T00:58:21;11.33;;;9.83;;
12474;SDS011;6302;42.624;23.334;2024-02-23T01:00:47;12.17;;;10.60;;
12474;SDS011;6302;42.624;23.334;2024-02-23T01:03:16;10.60;;;9.60;;
12474;SDS011;6302;42.624;23.334;2024-02-23T01:05:41;13.00;;;10.90;;
12474;SDS011;6302;42.624;23.334;2024-02-23T01:08:08;10.90;;;9.57;;
12474;SDS011;6302;42.624;23.334;2024-02-23T01:10:35;12.27;;;9.57;;
12474;SDS011;6302;42.624;23.334;2024-02-23T01:13:02;11.70;;;10.00;;
12474;SDS011;6302;42.624;23.334;2024-02-23T01:15:30;14.33;;;11.13;;
12474;SDS011;6302;42.624;23.334;2024-02-23T01:17:57;11.73;;;10.10;;
12474;SDS011;6302;42.624;23.334;2024-02-23T01:20:25;12.53;;;10.60;;
12474;SDS011;6302;42.624;23.334;2024-02-23T01:22:51;10.83;;;9.63;;
12474;SDS011;6302;42.624;23.334;2024-02-23T01:25:18;12.50;;;11.10;;
12474;SDS011;6302;42.624;23.334;2024-02-23T01:27:45;10.97;;;9.80;;
12474;SDS011;6302;42.624;23.334;2024-02-23T01:30:12;13.50;;;9.87;;
12474;SDS011;6302;42.624;23.334;2024-02-23T01:32:38;13.67;;;10.90;;
12474;SDS011;6302;42.624;23.334;2024-02-23T01:35:06;12.70;;;10.77;;
12474;SDS011;6302;42.624;23.334;2024-02-23T01:37:35;13.77;;;11.57;;
12474;SDS011;6302;42.624;23.334;2024-02-23T01:40:02;16.40;;;11.60;;
12474;SDS011;6302;42.624;23.334;2024-02-23T01:42:29;12.93;;;10.97;;
12474;SDS011;6302;42.624;23.334;2024-02-23T01:44:56;14.73;;;10.83;;
12474;SDS011;6302;42.624;23.334;2024-02-23T01:47:23;13.03;;;11.30;;
12474;SDS011;6302;42.624;23.334;2024-02-23T01:49:51;13.87;;;11.60;;
12474;SDS011;6302;42.624;23.334;2024-02-23T01:52:18;14.97;;;12.37;;
12474;SDS011;6302;42.624;23.334;2024-02-23T01:54:47;14.07;;;11.87;;
12474;SDS011;6302;42.624;23.334;2024-02-23T01:57:14;13.53;;;11.90;;
12474;SDS011;6302;42.624;23.334;2024-02-23T01:59:41;15.33;;;12.30;;
12474;SDS011;6302;42.624;23.334;2024-02-23T02:02:08;16.47;;;13.20;;
12474;SDS011;6302;42.624;23.334;2024-02-23T02:04:35;14.00;;;12.53;;
12474;SDS011;6302;42.624;23.334;2024-02-23T02:07:02;14.90;;;11.90;;
12474;SDS011;6302;42.624;23.334;2024-02-23T02:09:29;14.33;;;11.80;;
12474;SDS011;6302;42.624;23.334;2024-02-23T02:11:57;14.00;;;11.30;;
12474;SDS011;6302;42.624;23.334;2024-02-23T02:14:24;14.47;;;11.80;;
12474;SDS011;6302;42.624;23.334;2024-02-23T02:16:51;15.80;;;13.03;;
12474;SDS011;6302;42.624;23.334;2024-02-23T02:19:17;17.20;;;14.63;;
12474;SDS011;6302;42.624;23.334;2024-02-23T02:21:44;18.70;;;15.37;;
12474;SDS011;6302;42.624;23.334;2024-02-23T02:24:11;14.73;;;12.43;;
12474;SDS011;6302;42.624;23.334;2024-02-23T02:26:37;14.97;;;12.53;;
12474;SDS011;6302;42.624;23.334;2024-02-23T02:29:05;14.50;;;12.13;;
12474;SDS011;6302;42.624;23.334;2024-02-23T02:31:33;15.67;;;12.80;;
12474;SDS011;6302;42.624;23.334;2024-02-23T02:34:02;16.00;;;12.60;;
12474;SDS011;6302;42.624;23.334;2024-02-23T02:36:29;13.90;;;11.10;;
12474;SDS011;6302;42.624;23.334;2024-02-23T02:38:56;12.23;;;10.13;;
12474;SDS011;6302;42.624;23.334;2024-02-23T02:41:23;13.93;;;10.83;;
12474;SDS011;6302;42.624;23.334;2024-02-23T02:43:54;13.53;;;10.40;;
12474;SDS011;6302;42.624;23.334;2024-02-23T02:46:22;11.00;;;9.80;;
12474;SDS011;6302;42.624;23.334;2024-02-23T02:48:49;11.47;;;9.80;;
12474;SDS011;6302;42.624;23.334;2024-02-23T02:51:16;13.80;;;10.40;;
12474;SDS011;6302;42.624;23.334;2024-02-23T02:53:42;12.23;;;10.37;;
12474;SDS011;6302;42.624;23.334;2024-02-23T02:56:09;10.83;;;9.60;;
12474;SDS011;6302;42.624;23.334;2024-02-23T02:58:36;16.20;;;12.00;;
12474;SDS011;6302;42.624;23.334;2024-02-23T03:01:03;14.93;;;11.57;;
12474;SDS011;6302;42.624;23.334;2024-02-23T03:03:31;17.30;;;13.20;;
12474;SDS011;6302;42.624;23.334;2024-02-23T03:05:57;11.97;;;10.73;;
12474;SDS011;6302;42.624;23.334;2024-02-23T03:08:24;11.03;;;9.73;;
12474;SDS011;6302;42.624;23.334;2024-02-23T03:10:51;12.27;;;9.93;;
12474;SDS011;6302;42.624;23.334;2024-02-23T03:13:18;12.07;;;9.97;;
12474;SDS011;6302;42.624;23.334;2024-02-23T03:15:45;10.63;;;9.57;;
12474;SDS011;6302;42.624;23.334;2024-02-23T03:18:11;10.77;;;9.63;;
12474;SDS011;6302;42.624;23.334;2024-02-23T03:20:41;9.80;;;8.80;;
12474;SDS011;6302;42.624;23.334;2024-02-23T03:23:08;11.07;;;9.27;;
12474;SDS011;6302;42.624;23.334;2024-02-23T03:25:35;10.60;;;9.40;;
12474;SDS011;6302;42.624;23.334;2024-02-23T03:28:01;10.37;;;9.30;;
12474;SDS011;6302;42.624;23.334;2024-02-23T03:30:28;12.73;;;10.43;;
12474;SDS011;6302;42.624;23.334;2024-02-23T03:32:55;10.80;;;9.70;;
12474;SDS011;6302;42.624;23.334;2024-02-23T03:35:21;12.80;;;10.47;;
12474;SDS011;6302;42.624;23.334;2024-02-23T03:37:50;11.57;;;10.20;;
12474;SDS011;6302;42.624;23.334;2024-02-23T03:40:16;11.10;;;9.73;;
12474;SDS011;6302;42.624;23.334;2024-02-23T03:42:44;11.23;;;9.20;;
12474;SDS011;6302;42.624;23.334;2024-02-23T03:45:11;10.90;;;9.80;;
12474;SDS011;6302;42.624;23.334;2024-02-23T03:47:38;12.00;;;8.47;;
12474;SDS011;6302;42.624;23.334;2024-02-23T03:50:06;12.37;;;9.10;;
12474;SDS011;6302;42.624;23.334;2024-02-23T03:52:33;9.53;;;8.53;;
12474;SDS011;6302;42.624;23.334;2024-02-23T03:55:01;11.80;;;9.00;;
12474;SDS011;6302;42.624;23.334;2024-02-23T03:57:28;10.03;;;9.03;;
12474;SDS011;6302;42.624;23.334;2024-02-23T03:59:58;9.33;;;8.33;;
12474;SDS011;6302;42.624;23.334;2024-02-23T04:02:25;10.73;;;9.63;;
12474;SDS011;6302;42.624;23.334;2024-02-23T04:04:51;10.70;;;9.30;;
12474;SDS011;6302;42.624;23.334;2024-02-23T04:07:19;10.53;;;9.43;;
12474;SDS011;6302;42.624;23.334;2024-02-23T04:09:45;10.43;;;9.20;;
12474;SDS011;6302;42.624;23.334;2024-02-23T04:12:18;10.63;;;9.53;;
12474;SDS011;6302;42.624;23.334;2024-02-23T04:14:45;10.33;;;9.30;;
12474;SDS011;6302;42.624;23.334;2024-02-23T04:17:12;9.63;;;8.63;;
12474;SDS011;6302;42.624;23.334;2024-02-23T04:19:39;11.30;;;10.00;;
12474;SDS011;6302;42.624;23.334;2024-02-23T04:22:06;12.90;;;10.43;;
12474;SDS011;6302;42.624;23.334;2024-02-23T04:24:35;11.67;;;10.30;;
12474;SDS011;6302;42.624;23.334;2024-02-23T04:27:02;10.33;;;9.10;;
12474;SDS011;6302;42.624;23.334;2024-02-23T04:29:31;12.07;;;9.77;;
12474;SDS011;6302;42.624;23.334;2024-02-23T04:31:59;12.60;;;10.80;;
12474;SDS011;6302;42.624;23.334;2024-02-23T04:34:26;20.53;;;14.00;;
12474;SDS011;6302;42.624;23.334;2024-02-23T04:36:53;15.57;;;13.87;;
12474;SDS011;6302;42.624;23.334;2024-02-23T04:39:20;10.57;;;9.57;;
12474;SDS011;6302;42.624;23.334;2024-02-23T04:41:48;9.87;;;8.87;;
12474;SDS011;6302;42.624;23.334;2024-02-23T04:44:15;11.23;;;9.80;;
12474;SDS011;6302;42.624;23.334;2024-02-23T04:46:43;10.07;;;9.07;;
12474;SDS011;6302;42.624;23.334;2024-02-23T04:49:10;11.40;;;9.17;;
12474;SDS011;6302;42.624;23.334;2024-02-23T04:51:38;12.33;;;9.67;;
12474;SDS011;6302;42.624;23.334;2024-02-23T04:54:04;12.37;;;9.47;;
12474;SDS011;6302;42.624;23.334;2024-02-23T04:56:31;12.40;;;9.10;;
12474;SDS011;6302;42.624;23.334;2024-02-23T04:58:58;11.60;;;9.57;;
12474;SDS011;6302;42.624;23.334;2024-02-23T05:01:25;11.97;;;10.40;;
12474;SDS011;6302;42.624;23.334;2024-02-23T05:03:53;11.27;;;8.93;;
12474;SDS011;6302;42.624;23.334;2024-02-23T05:06:20;13.03;;;9.53;;
12474;SDS011;6302;42.624;23.334;2024-02-23T05:08:46;11.60;;;10.40;;
12474;SDS011;6302;42.624;23.334;2024-02-23T05:11:14;11.40;;;10.30;;
12474;SDS011;6302;42.624;23.334;2024-02-23T05:13:41;10.63;;;9.63;;
12474;SDS011;6302;42.624;23.334;2024-02-23T05:16:07;12.97;;;9.80;;
12474;SDS011;6302;42.624;23.334;2024-02-23T05:18:34;11.17;;;9.93;;
12474;SDS011;6302;42.624;23.334;2024-02-23T05:21:02;12.43;;;10.10;;
12474;SDS011;6302;42.624;23.334;2024-02-23T05:23:30;10.80;;;9.63;;
12474;SDS011;6302;42.624;23.334;2024-02-23T05:25:57;11.97;;;9.77;;
12474;SDS011;6302;42.624;23.334;2024-02-23T05:28:24;10.67;;;9.63;;
12474;SDS011;6302;42.624;23.334;2024-02-23T05:30:51;12.00;;;10.20;;
12474;SDS011;6302;42.624;23.334;2024-02-23T05:33:17;11.80;;;10.50;;
12474;SDS011;6302;42.624;23.334;2024-02-23T05:35:45;11.83;;;10.43;;
12474;SDS011;6302;42.624;23.334;2024-02-23T05:38:15;15.40;;;13.30;;
12474;SDS011;6302;42.624;23.334;2024-02-23T05:40:42;15.60;;;11.60;;
12474;SDS011;6302;42.624;23.334;2024-02-23T05:43:10;12.33;;;11.10;;
12474;SDS011;6302;42.624;23.334;2024-02-23T05:45:37;12.73;;;10.13;;
12474;SDS011;6302;42.624;23.334;2024-02-23T05:48:04;12.30;;;10.90;;
12474;SDS011;6302;42.624;23.334;2024-02-23T05:50:31;14.10;;;10.63;;
12474;SDS011;6302;42.624;23.334;2024-02-23T05:52:58;11.10;;;9.57;;
12474;SDS011;6302;42.624;23.334;2024-02-23T05:55:26;12.80;;;9.83;;
12474;SDS011;6302;42.624;23.334;2024-02-23T05:57:53;10.90;;;8.97;;
12474;SDS011;6302;42.624;23.334;2024-02-23T06:00:20;11.00;;;9.60;;
12474;SDS011;6302;42.624;23.334;2024-02-23T06:02:47;9.93;;;8.47;;
12474;SDS011;6302;42.624;23.334;2024-02-23T06:05:14;11.07;;;9.87;;
12474;SDS011;6302;42.624;23.334;2024-02-23T06:07:41;13.60;;;11.77;;
12474;SDS011;6302;42.624;23.334;2024-02-23T06:10:08;13.67;;;11.20;;
12474;SDS011;6302;42.624;23.334;2024-02-23T06:12:36;17.57;;;13.17;;
12474;SDS011;6302;42.624;23.334;2024-02-23T06:15:04;17.93;;;14.60;;
12474;SDS011;6302;42.624;23.334;2024-02-23T06:17:31;20.50;;;12.90;;
12474;SDS011;6302;42.624;23.334;2024-02-23T06:19:58;11.87;;;10.60;;
12474;SDS011;6302;42.624;23.334;2024-02-23T06:22:25;13.67;;;10.93;;
12474;SDS011;6302;42.624;23.334;2024-02-23T06:24:52;13.87;;;11.63;;
12474;SDS011;6302;42.624;23.334;2024-02-23T06:27:19;16.77;;;11.43;;
12474;SDS011;6302;42.624;23.334;2024-02-23T06:29:48;18.40;;;11.57;;
12474;SDS011;6302;42.624;23.334;2024-02-23T06:32:15;15.43;;;11.77;;
12474;SDS011;6302;42.624;23.334;2024-02-23T06:34:42;13.77;;;11.33;;
12474;SDS011;6302;42.624;23.334;2024-02-23T06:37:08;12.17;;;9.90;;
12474;SDS011;6302;42.624;23.334;2024-02-23T06:39:35;12.00;;;10.70;;
12474;SDS011;6302;42.624;23.334;2024-02-23T06:42:02;11.47;;;10.03;;
12474;SDS011;6302;42.624;23.334;2024-02-23T06:44:29;11.77;;;10.23;;
12474;SDS011;6302;42.624;23.334;2024-02-23T06:46:58;13.67;;;10.07;;
12474;SDS011;6302;42.624;23.334;2024-02-23T06:49:24;10.93;;;9.67;;
12474;SDS011;6302;42.624;23.334;2024-02-23T06:51:51;11.73;;;9.70;;
12474;SDS011;6302;42.624;23.334;2024-02-23T06:54:18;11.23;;;9.13;;
12474;SDS011;6302;42.624;23.334;2024-02-23T06:56:45;10.60;;;9.50;;
12474;SDS011;6302;42.624;23.334;2024-02-23T06:59:12;12.83;;;10.43;;
12474;SDS011;6302;42.624;23.334;2024-02-23T07:01:47;12.63;;;10.00;;
12474;SDS011;6302;42.624;23.334;2024-02-23T07:04:16;12.10;;;10.60;;
12474;SDS011;6302;42.624;23.334;2024-02-23T07:06:43;11.63;;;10.37;;
12474;SDS011;6302;42.624;23.334;2024-02-23T07:09:10;10.57;;;9.27;;
12474;SDS011;6302;42.624;23.334;2024-02-23T07:11:37;10.87;;;9.43;;
12474;SDS011;6302;42.624;23.334;2024-02-23T07:14:04;12.27;;;10.33;;
12474;SDS011;6302;42.624;23.334;2024-02-23T07:16:31;10.80;;;9.73;;
12474;SDS011;6302;42.624;23.334;2024-02-23T07:18:58;11.03;;;9.83;;
12474;SDS011;6302;42.624;23.334;2024-02-23T07:21:26;11.80;;;10.60;;
12474;SDS011;6302;42.624;23.334;2024-02-23T07:23:53;13.50;;;10.30;;
12474;SDS011;6302;42.624;23.334;2024-02-23T07:26:19;12.90;;;10.73;;
12474;SDS011;6302;42.624;23.334;2024-02-23T07:28:47;12.40;;;10.40;;
12474;SDS011;6302;42.624;23.334;2024-02-23T07:31:14;12.53;;;10.87;;
12474;SDS011;6302;42.624;23.334;2024-02-23T07:33:41;11.00;;;9.90;;
12474;SDS011;6302;42.624;23.334;2024-02-23T07:36:13;11.60;;;10.37;;
12474;SDS011;6302;42.624;23.334;2024-02-23T07:38:41;12.27;;;10.53;;
12474;SDS011;6302;42.624;23.334;2024-02-23T07:41:08;13.43;;;11.33;;
12474;SDS011;6302;42.624;23.334;2024-02-23T07:43:35;16.67;;;10.87;;
12474;SDS011;6302;42.624;23.334;2024-02-23T07:46:02;12.07;;;10.77;;
12474;SDS011;6302;42.624;23.334;2024-02-23T07:48:30;12.03;;;10.83;;
12474;SDS011;6302;42.624;23.334;2024-02-23T07:50:56;14.07;;;10.97;;
12474;SDS011;6302;42.624;23.334;2024-02-23T07:53:23;13.63;;;11.23;;
12474;SDS011;6302;42.624;23.334;2024-02-23T07:55:51;15.30;;;12.17;;
12474;SDS011;6302;42.624;23.334;2024-02-23T07:58:18;15.90;;;12.50;;
12474;SDS011;6302;42.624;23.334;2024-02-23T08:00:46;15.77;;;11.73;;
12474;SDS011;6302;42.624;23.334;2024-02-23T08:03:13;15.53;;;12.67;;
12474;SDS011;6302;42.624;23.334;2024-02-23T08:05:39;14.63;;;13.00;;
12474;SDS011;6302;42.624;23.334;2024-02-23T08:08:06;17.63;;;12.60;;
12474;SDS011;6302;42.624;23.334;2024-02-23T08:10:33;15.70;;;13.60;;
12474;SDS011;6302;42.624;23.334;2024-02-23T08:13:03;18.97;;;13.73;;
12474;SDS011;6302;42.624;23.334;2024-02-23T08:15:30;15.03;;;12.87;;
12474;SDS011;6302;42.624;23.334;2024-02-23T08:17:57;14.90;;;12.47;;
12474;SDS011;6302;42.624;23.334;2024-02-23T08:20:23;13.27;;;11.87;;
12474;SDS011;6302;42.624;23.334;2024-02-23T08:22:50;15.27;;;13.07;;
12474;SDS011;6302;42.624;23.334;2024-02-23T08:25:17;15.97;;;13.17;;
12474;SDS011;6302;42.624;23.334;2024-02-23T08:27:44;18.17;;;13.33;;
12474;SDS011;6302;42.624;23.334;2024-02-23T08:30:12;15.53;;;13.13;;
12474;SDS011;6302;42.624;23.334;2024-02-23T08:32:40;16.43;;;13.30;;
12474;SDS011;6302;42.624;23.334;2024-02-23T08:35:07;17.73;;;12.70;;
12474;SDS011;6302;42.624;23.334;2024-02-23T08:37:34;14.47;;;11.27;;
12474;SDS011;6302;42.624;23.334;2024-02-23T08:40:00;14.50;;;11.70;;
12474;SDS011;6302;42.624;23.334;2024-02-23T08:42:28;13.53;;;10.73;;
12474;SDS011;6302;42.624;23.334;2024-02-23T08:44:55;12.77;;;10.20;;
12474;SDS011;6302;42.624;23.334;2024-02-23T08:47:23;13.20;;;10.70;;
12474;SDS011;6302;42.624;23.334;2024-02-23T08:49:50;13.47;;;11.17;;
12474;SDS011;6302;42.624;23.334;2024-02-23T08:52:16;13.73;;;11.53;;
12474;SDS011;6302;42.624;23.334;2024-02-23T08:54:44;12.70;;;10.20;;
12474;SDS011;6302;42.624;23.334;2024-02-23T08:57:10;12.67;;;10.63;;
12474;SDS011;6302;42.624;23.334;2024-02-23T08:59:37;15.70;;;11.20;;
12474;SDS011;6302;42.624;23.334;2024-02-23T09:02:04;15.37;;;11.70;;
12474;SDS011;6302;42.624;23.334;2024-02-23T09:04:32;12.07;;;10.77;;
12474;SDS011;6302;42.624;23.334;2024-02-23T09:06:59;14.20;;;9.97;;
12474;SDS011;6302;42.624;23.334;2024-02-23T09:09:25;11.70;;;10.03;;
12474;SDS011;6302;42.624;23.334;2024-02-23T09:11:52;11.50;;;10.33;;
12474;SDS011;6302;42.624;23.334;2024-02-23T09:14:20;11.87;;;10.47;;
12474;SDS011;6302;42.624;23.334;2024-02-23T09:16:47;12.50;;;10.80;;
12474;SDS011;6302;42.624;23.334;2024-02-23T09:19:16;11.80;;;10.60;;
12474;SDS011;6302;42.624;23.334;2024-02-23T09:21:44;11.00;;;9.20;;
12474;SDS011;6302;42.624;23.334;2024-02-23T09:24:11;11.13;;;9.33;;
12474;SDS011;6302;42.624;23.334;2024-02-23T09:26:38;10.93;;;9.20;;
12474;SDS011;6302;42.624;23.334;2024-02-23T09:29:05;11.73;;;9.50;;
12474;SDS011;6302;42.624;23.334;2024-02-23T09:31:32;13.53;;;8.70;;
12474;SDS011;6302;42.624;23.334;2024-02-23T09:33:59;12.17;;;9.63;;
12474;SDS011;6302;42.624;23.334;2024-02-23T09:36:25;8.47;;;7.60;;
12474;SDS011;6302;42.624;23.334;2024-02-23T09:38:54;10.80;;;7.80;;
12474;SDS011;6302;42.624;23.334;2024-02-23T09:41:21;8.53;;;7.17;;
12474;SDS011;6302;42.624;23.334;2024-02-23T09:43:49;8.23;;;6.53;;
12474;SDS011;6302;42.624;23.334;2024-02-23T09:46:17;7.23;;;6.53;;
12474;SDS011;6302;42.624;23.334;2024-02-23T09:48:45;5.53;;;4.90;;
12474;SDS011;6302;42.624;23.334;2024-02-23T09:51:15;4.60;;;4.20;;
12474;SDS011;6302;42.624;23.334;2024-02-23T09:53:42;4.57;;;4.13;;
12474;SDS011;6302;42.624;23.334;2024-02-23T09:56:11;5.10;;;4.10;;
12474;SDS011;6302;42.624;23.334;2024-02-23T09:58:42;5.90;;;3.60;;
12474;SDS011;6302;42.624;23.334;2024-02-23T10:01:10;3.57;;;3.23;;
12474;SDS011;6302;42.624;23.334;2024-02-23T10:03:37;4.63;;;4.23;;
12474;SDS011;6302;42.624;23.334;2024-02-23T10:06:05;5.93;;;4.10;;
12474;SDS011;6302;42.624;23.334;2024-02-23T10:08:32;4.27;;;3.23;;
12474;SDS011;6302;42.624;23.334;2024-02-23T10:11:00;4.00;;;3.60;;
12474;SDS011;6302;42.624;23.334;2024-02-23T10:13:29;5.13;;;4.23;;
12474;SDS011;6302;42.624;23.334;2024-02-23T10:15:56;3.97;;;3.57;;
12474;SDS011;6302;42.624;23.334;2024-02-23T10:18:23;5.07;;;3.77;;
12474;SDS011;6302;42.624;23.334;2024-02-23T10:20:49;4.33;;;3.30;;
12474;SDS011;6302;42.624;23.334;2024-02-23T10:23:17;3.93;;;3.53;;
12474;SDS011;6302;42.624;23.334;2024-02-23T10:25:45;3.40;;;3.00;;
12474;SDS011;6302;42.624;23.334;2024-02-23T10:28:12;5.40;;;3.50;;
12474;SDS011;6302;42.624;23.334;2024-02-23T10:30:40;4.27;;;3.50;;
12474;SDS011;6302;42.624;23.334;2024-02-23T10:33:07;4.00;;;3.27;;
12474;SDS011;6302;42.624;23.334;2024-02-23T10:35:35;3.10;;;2.80;;
12474;SDS011;6302;42.624;23.334;2024-02-23T10:38:05;2.30;;;2.10;;
12474;SDS011;6302;42.624;23.334;2024-02-23T10:40:35;2.80;;;2.60;;
12474;SDS011;6302;42.624;23.334;2024-02-23T10:43:05;3.20;;;3.00;;
12474;SDS011;6302;42.624;23.334;2024-02-23T10:45:38;3.60;;;2.43;;
12474;SDS011;6302;42.624;23.334;2024-02-23T10:48:07;2.90;;;2.63;;
12474;SDS011;6302;42.624;23.334;2024-02-23T10:50:35;3.50;;;2.83;;
12474;SDS011;6302;42.624;23.334;2024-02-23T10:53:03;5.80;;;4.53;;
12474;SDS011;6302;42.624;23.334;2024-02-23T10:55:33;2.90;;;2.70;;
12474;SDS011;6302;42.624;23.334;2024-02-23T10:58:03;3.20;;;2.90;;
12474;SDS011;6302;42.624;23.334;2024-02-23T11:00:36;3.10;;;2.90;;
12474;SDS011;6302;42.624;23.334;2024-02-23T11:03:07;4.53;;;3.43;;
12474;SDS011;6302;42.624;23.334;2024-02-23T11:05:34;3.27;;;2.97;;
12474;SDS011;6302;42.624;23.334;2024-02-23T11:08:01;2.97;;;2.70;;
12474;SDS011;6302;42.624;23.334;2024-02-23T11:10:28;5.93;;;4.30;;
12474;SDS011;6302;42.624;23.334;2024-02-23T11:12:57;3.53;;;3.10;;
12474;SDS011;6302;42.624;23.334;2024-02-23T11:15:28;3.47;;;2.73;;
12474;SDS011;6302;42.624;23.334;2024-02-23T11:17:58;4.73;;;2.77;;
12474;SDS011;6302;42.624;23.334;2024-02-23T11:20:35;4.53;;;3.77;;
12474;SDS011;6302;42.624;23.334;2024-02-23T11:23:12;3.30;;;2.93;;
12474;SDS011;6302;42.624;23.334;2024-02-23T11:25:40;5.63;;;3.10;;
12474;SDS011;6302;42.624;23.334;2024-02-23T11:28:06;3.37;;;2.40;;
12474;SDS011;6302;42.624;23.334;2024-02-23T11:30:33;3.70;;;3.40;;
12474;SDS011;6302;42.624;23.334;2024-02-23T11:33:01;4.93;;;3.67;;
12474;SDS011;6302;42.624;23.334;2024-02-23T11:35:27;5.70;;;3.90;;
12474;SDS011;6302;42.624;23.334;2024-02-23T11:37:56;4.07;;;3.10;;
12474;SDS011;6302;42.624;23.334;2024-02-23T11:40:25;2.87;;;2.67;;
12474;SDS011;6302;42.624;23.334;2024-02-23T11:42:52;4.10;;;2.63;;
12474;SDS011;6302;42.624;23.334;2024-02-23T11:45:20;3.80;;;3.37;;
12474;SDS011;6302;42.624;23.334;2024-02-23T11:47:47;5.10;;;3.30;;
12474;SDS011;6302;42.624;23.334;2024-02-23T11:50:14;4.43;;;2.80;;
12474;SDS011;6302;42.624;23.334;2024-02-23T11:52:41;3.20;;;2.90;;
12474;SDS011;6302;42.624;23.334;2024-02-23T11:55:09;2.87;;;2.60;;
12474;SDS011;6302;42.624;23.334;2024-02-23T11:57:36;3.83;;;3.40;;
12474;SDS011;6302;42.624;23.334;2024-02-23T12:00:05;3.20;;;2.77;;
12474;SDS011;6302;42.624;23.334;2024-02-23T12:02:34;4.63;;;2.80;;
12474;SDS011;6302;42.624;23.334;2024-02-23T12:05:02;4.67;;;3.30;;
12474;SDS011;6302;42.624;23.334;2024-02-23T12:07:29;2.87;;;2.60;;
12474;SDS011;6302;42.624;23.334;2024-02-23T12:09:56;4.50;;;2.70;;
12474;SDS011;6302;42.624;23.334;2024-02-23T12:12:25;3.53;;;3.13;;
12474;SDS011;6302;42.624;23.334;2024-02-23T12:14:52;6.03;;;3.37;;
12474;SDS011;6302;42.624;23.334;2024-02-23T12:17:19;2.73;;;2.50;;
12474;SDS011;6302;42.624;23.334;2024-02-23T12:19:45;3.53;;;2.70;;
12474;SDS011;6302;42.624;23.334;2024-02-23T12:22:12;3.30;;;2.70;;
12474;SDS011;6302;42.624;23.334;2024-02-23T12:24:40;5.67;;;4.27;;
12474;SDS011;6302;42.624;23.334;2024-02-23T12:27:07;4.43;;;3.97;;
12474;SDS011;6302;42.624;23.334;2024-02-23T12:29:35;2.90;;;2.70;;
12474;SDS011;6302;42.624;23.334;2024-02-23T12:32:03;3.77;;;3.37;;
12474;SDS011;6302;42.624;23.334;2024-02-23T12:34:30;4.83;;;3.33;;
12474;SDS011;6302;42.624;23.334;2024-02-23T12:36:57;3.60;;;2.83;;
12474;SDS011;6302;42.624;23.334;2024-02-23T12:39:23;4.23;;;3.57;;
12474;SDS011;6302;42.624;23.334;2024-02-23T12:41:51;3.37;;;2.90;;
12474;SDS011;6302;42.624;23.334;2024-02-23T12:44:18;4.10;;;2.80;;
12474;SDS011;6302;42.624;23.334;2024-02-23T12:46:46;2.63;;;2.37;;
12474;SDS011;6302;42.624;23.334;2024-02-23T12:49:13;5.10;;;2.40;;
12474;SDS011;6302;42.624;23.334;2024-02-23T12:51:41;2.70;;;2.50;;
12474;SDS011;6302;42.624;23.334;2024-02-23T12:54:08;3.00;;;2.60;;
12474;SDS011;6302;42.624;23.334;2024-02-23T12:56:35;4.07;;;2.47;;
12474;SDS011;6302;42.624;23.334;2024-02-23T12:59:01;2.70;;;2.50;;
12474;SDS011;6302;42.624;23.334;2024-02-23T13:01:28;2.97;;;2.30;;
12474;SDS011;6302;42.624;23.334;2024-02-23T13:03:58;2.60;;;2.40;;
12474;SDS011;6302;42.624;23.334;2024-02-23T13:06:25;2.20;;;2.10;;
12474;SDS011;6302;42.624;23.334;2024-02-23T13:08:52;3.73;;;2.40;;
12474;SDS011;6302;42.624;23.334;2024-02-23T13:11:19;3.50;;;2.47;;
12474;SDS011;6302;42.624;23.334;2024-02-23T13:13:45;4.03;;;2.10;;
12474;SDS011;6302;42.624;23.334;2024-02-23T13:16:12;2.90;;;2.40;;
12474;SDS011;6302;42.624;23.334;2024-02-23T13:18:40;4.33;;;2.53;;
12474;SDS011;6302;42.624;23.334;2024-02-23T13:21:08;2.70;;;2.50;;
12474;SDS011;6302;42.624;23.334;2024-02-23T13:23:35;2.80;;;2.13;;
12474;SDS011;6302;42.624;23.334;2024-02-23T13:26:02;2.73;;;2.53;;
12474;SDS011;6302;42.624;23.334;2024-02-23T13:28:29;3.60;;;2.30;;
12474;SDS011;6302;42.624;23.334;2024-02-23T13:30:56;2.57;;;2.37;;
12474;SDS011;6302;42.624;23.334;2024-02-23T13:33:22;2.63;;;2.43;;
12474;SDS011;6302;42.624;23.334;2024-02-23T13:35:50;4.23;;;2.60;;
12474;SDS011;6302;42.624;23.334;2024-02-23T13:38:19;3.70;;;2.80;;
12474;SDS011;6302;42.624;23.334;2024-02-23T13:40:46;2.60;;;2.40;;
12474;SDS011;6302;42.624;23.334;2024-02-23T13:43:13;2.53;;;2.33;;
12474;SDS011;6302;42.624;23.334;2024-02-23T13:45:47;2.50;;;2.30;;
12474;SDS011;6302;42.624;23.334;2024-02-23T13:48:14;2.33;;;2.13;;
12474;SDS011;6302;42.624;23.334;2024-02-23T13:50:41;2.90;;;2.50;;
12474;SDS011;6302;42.624;23.334;2024-02-23T13:53:08;2.97;;;2.23;;
12474;SDS011;6302;42.624;23.334;2024-02-23T13:55:36;2.70;;;2.43;;
12474;SDS011;6302;42.624;23.334;2024-02-23T13:58:03;2.67;;;2.47;;
12474;SDS011;6302;42.624;23.334;2024-02-23T14:00:30;2.40;;;2.20;;
12474;SDS011;6302;42.624;23.334;2024-02-23T14:02:57;2.70;;;2.50;;
12474;SDS011;6302;42.624;23.334;2024-02-23T14:05:23;3.33;;;2.73;;
12474;SDS011;6302;42.624;23.334;2024-02-23T14:07:51;3.20;;;2.20;;
12474;SDS011;6302;42.624;23.334;2024-02-23T14:10:18;4.77;;;3.40;;
12474;SDS011;6302;42.624;23.334;2024-02-23T14:12:47;3.40;;;2.70;;
12474;SDS011;6302;42.624;23.334;2024-02-23T14:15:15;2.80;;;2.60;;
12474;SDS011;6302;42.624;23.334;2024-02-23T14:17:42;2.33;;;2.13;;
12474;SDS011;6302;42.624;23.334;2024-02-23T14:20:09;3.63;;;2.50;;
12474;SDS011;6302;42.624;23.334;2024-02-23T14:22:37;2.50;;;2.30;;
12474;SDS011;6302;42.624;23.334;2024-02-23T14:25:04;3.03;;;2.30;;
12474;SDS011;6302;42.624;23.334;2024-02-23T14:27:32;2.43;;;2.23;;
12474;SDS011;6302;42.624;23.334;2024-02-23T14:30:01;4.07;;;2.50;;
12474;SDS011;6302;42.624;23.334;2024-02-23T14:32:27;3.40;;;2.40;;
12474;SDS011;6302;42.624;23.334;2024-02-23T14:34:53;2.80;;;2.60;;